createdAt,value
2019-06-01T21:12:44.818Z,1017.35
2019-06-01T21:13:40.645Z,1017.34
2019-06-01T21:15:50.152Z,1017.35
2019-06-01T21:16:55.681Z,1017.41
2019-06-01T21:18:01.221Z,1017.42
2019-06-01T21:19:06.760Z,1017.40
2019-06-01T21:20:12.351Z,1017.40
2019-06-01T21:21:18.288Z,1017.38
2019-06-01T21:22:23.383Z,1017.41
2019-06-01T21:23:28.914Z,1017.42
2019-06-01T21:24:34.454Z,1017.40
2019-06-01T21:25:39.992Z,1017.42
2019-06-01T21:26:45.529Z,1017.37
2019-06-01T21:27:51.099Z,1017.38
2019-06-01T21:28:56.608Z,1017.37
2019-06-01T21:30:02.148Z,1017.40
2019-06-01T21:31:07.687Z,1017.41
2019-06-01T21:32:13.227Z,1017.37
2019-06-01T21:33:19.746Z,1017.38
2019-06-01T21:34:25.448Z,1017.35
2019-06-01T21:35:29.844Z,1017.34
2019-06-01T21:36:35.383Z,1017.37
2019-06-01T21:37:40.921Z,1017.36
2019-06-01T21:38:46.462Z,1017.37
2019-06-01T21:39:51.997Z,1017.42
2019-06-01T21:40:57.538Z,1017.42
2019-06-01T21:42:03.090Z,1017.45
2019-06-01T21:43:23.689Z,1017.49
2019-06-01T21:44:15.308Z,1017.53
2019-06-01T21:45:19.699Z,1017.53
2019-06-01T21:46:25.762Z,1017.53
2019-06-01T21:47:30.789Z,1017.53
2019-06-01T21:48:36.316Z,1017.53
2019-06-01T21:49:41.859Z,1017.54
2019-06-01T21:50:47.392Z,1017.56
2019-06-01T21:51:53.282Z,1017.55
2019-06-01T21:52:58.474Z,1017.59
2019-06-01T21:54:04.014Z,1017.56
2019-06-01T21:55:09.552Z,1017.54
2019-06-01T21:56:18.635Z,1017.55
2019-06-01T21:57:20.633Z,1017.55
2019-06-01T21:58:26.669Z,1017.55
2019-06-01T21:59:31.712Z,1017.53
2019-06-01T22:00:37.249Z,1017.52
2019-06-01T22:01:42.792Z,1017.53
2019-06-01T22:02:48.327Z,1017.54
2019-06-01T22:03:53.865Z,1017.54
2019-06-01T22:04:59.410Z,1017.51
2019-06-01T22:06:04.948Z,1017.57
2019-06-01T22:07:10.488Z,1017.53
2019-06-01T22:08:17.166Z,1017.57
2019-06-01T22:09:21.568Z,1017.52
2019-06-01T22:10:27.804Z,1017.49
2019-06-01T22:11:32.653Z,1017.47
2019-06-01T22:12:38.197Z,1017.46
2019-06-01T22:13:43.730Z,1017.45
2019-06-01T22:14:49.272Z,1017.44
2019-06-01T22:15:54.811Z,1017.43
2019-06-01T22:17:00.350Z,1017.46
2019-06-01T22:18:05.974Z,1017.42
2019-06-01T22:19:11.429Z,1017.41
2019-06-01T22:20:17.812Z,1017.40
2019-06-01T22:21:23.689Z,1017.40
2019-06-01T22:22:28.200Z,1017.41
2019-06-01T22:23:33.591Z,1017.44
2019-06-01T22:24:39.130Z,1017.42
2019-06-01T22:25:44.672Z,1017.44
2019-06-01T22:26:50.212Z,1017.40
2019-06-01T22:27:55.753Z,1017.43
2019-06-01T22:29:01.299Z,1017.34
2019-06-01T22:30:06.844Z,1017.37
2019-06-01T22:31:12.374Z,1017.36
2019-06-01T22:32:18.397Z,1017.36
2019-06-01T22:33:24.539Z,1017.36
2019-06-01T22:34:29.396Z,1017.36
2019-06-01T22:35:34.531Z,1017.39
2019-06-01T22:36:40.078Z,1017.38
2019-06-01T22:37:45.616Z,1017.39
2019-06-01T22:38:51.152Z,1017.35
2019-06-01T22:39:56.691Z,1017.40
2019-06-01T22:41:02.235Z,1017.38
2019-06-01T22:42:07.776Z,1017.41
2019-06-01T22:43:13.314Z,1017.37
2019-06-01T22:44:19.990Z,1017.40
2019-06-01T22:45:24.676Z,1017.35
2019-06-01T22:46:29.935Z,1017.33
2019-06-01T22:47:35.476Z,1017.38
2019-06-01T22:48:41.020Z,1017.33
2019-06-01T22:49:46.557Z,1017.32
2019-06-01T22:50:52.093Z,1017.32
2019-06-01T22:51:57.659Z,1017.27
2019-06-01T22:53:03.177Z,1017.27
2019-06-01T22:54:08.724Z,1017.25
2019-06-01T22:55:14.257Z,1017.24
2019-06-01T22:56:21.075Z,1017.25
2019-06-01T22:57:26.585Z,1017.22
2019-06-01T22:58:31.639Z,1017.23
2019-06-01T22:59:36.411Z,1017.22
2019-06-01T23:00:41.954Z,1017.28
2019-06-01T23:01:47.490Z,1017.25
2019-06-01T23:02:53.037Z,1017.25
2019-06-01T23:03:58.572Z,1017.23
2019-06-01T23:05:04.110Z,1017.18
2019-06-01T23:06:09.658Z,1017.20
2019-06-01T23:07:15.194Z,1017.21
2019-06-01T23:08:20.936Z,1017.19
2019-06-01T23:09:27.409Z,1017.21
2019-06-01T23:10:35.271Z,1017.20
2019-06-01T23:11:37.350Z,1017.21
2019-06-01T23:12:42.893Z,1017.23
2019-06-01T23:13:53.421Z,1017.22
2019-06-01T23:14:53.968Z,1017.22
2019-06-01T23:15:59.514Z,1017.23
2019-06-01T23:17:05.048Z,1017.21
2019-06-01T23:18:10.627Z,1017.20
2019-06-01T23:19:16.126Z,1017.19
2019-06-01T23:20:21.750Z,1017.22
2019-06-01T23:21:27.845Z,1017.17
2019-06-01T23:22:32.749Z,1017.17
2019-06-01T23:23:38.297Z,1017.18
2019-06-01T23:24:43.831Z,1017.15
2019-06-01T23:25:49.367Z,1017.15
2019-06-01T23:26:54.908Z,1017.14
2019-06-01T23:28:00.447Z,1017.14
2019-06-01T23:29:05.994Z,1017.13
2019-06-01T23:30:11.523Z,1017.14
2019-06-01T23:31:17.074Z,1017.11
2019-06-01T23:32:22.617Z,1017.13
2019-06-01T23:33:28.903Z,1017.12
2019-06-01T23:34:33.684Z,1017.13
2019-06-01T23:35:39.229Z,1017.15
2019-06-01T23:36:44.761Z,1017.15
2019-06-01T23:37:50.299Z,1017.10
2019-06-01T23:38:55.841Z,1017.11
2019-06-01T23:40:01.374Z,1017.10
2019-06-01T23:41:06.920Z,1017.13
2019-06-01T23:42:12.462Z,1017.14
2019-06-01T23:43:17.998Z,1017.14
2019-06-01T23:44:24.771Z,1017.14
2019-06-01T23:45:29.085Z,1017.11
2019-06-01T23:46:34.618Z,1017.16
2019-06-01T23:47:40.164Z,1017.14
2019-06-01T23:48:45.698Z,1017.13
2019-06-01T23:49:51.235Z,1017.13
2019-06-01T23:50:56.783Z,1017.13
2019-06-01T23:52:02.315Z,1017.11
2019-06-01T23:53:13.776Z,1017.13
2019-06-01T23:54:13.392Z,1017.07
2019-06-01T23:55:18.932Z,1017.07
2019-06-01T23:56:25.561Z,1017.07
2019-06-01T23:57:30.138Z,1017.01
2019-06-01T23:58:35.550Z,1017.02
2019-06-01T23:59:41.092Z,1017.02
